createdAt,value
2019-04-23T00:02:13.501Z,5.43
2019-04-23T00:04:20.176Z,4.63
2019-04-23T00:06:28.147Z,4.70
2019-04-23T00:08:41.611Z,5.07
2019-04-23T00:15:04.407Z,5.00
2019-04-23T00:16:57.830Z,5.47
2019-04-23T00:18:57.465Z,4.83
2019-04-23T00:21:13.941Z,4.47
2019-04-23T00:23:16.372Z,5.27
2019-04-23T00:29:53.421Z,4.53
2019-04-23T00:31:56.187Z,4.93
2019-04-23T00:33:59.047Z,4.43
2019-04-23T00:36:03.066Z,5.77
2019-04-23T00:38:11.877Z,4.87
2019-04-23T00:40:10.203Z,6.17
2019-04-23T00:42:23.987Z,4.30
2019-04-23T00:44:25.281Z,5.33
2019-04-23T00:46:28.922Z,6.30
2019-04-23T00:50:52.224Z,5.47
2019-04-23T00:52:45.698Z,5.70
2019-04-23T00:54:57.512Z,5.47
2019-04-23T00:57:01.396Z,5.03
2019-04-23T01:01:11.553Z,7.00
2019-04-23T01:05:24.842Z,5.57
2019-04-23T01:07:33.376Z,4.70
2019-04-23T01:09:44.130Z,4.77
2019-04-23T01:11:39.318Z,4.07
2019-04-23T01:14:01.123Z,5.23
2019-04-23T01:15:59.693Z,4.70
2019-04-23T01:20:18.861Z,3.90
2019-04-23T01:22:04.527Z,3.73
2019-04-23T01:24:31.290Z,4.07
2019-04-23T01:27:32.487Z,5.80
2019-04-23T01:29:22.248Z,5.70
2019-04-23T01:31:31.124Z,4.27
2019-04-23T01:33:42.446Z,4.57
2019-04-23T01:35:36.341Z,5.70
2019-04-23T01:37:41.105Z,4.57
2019-04-23T01:39:52.812Z,4.60
2019-04-23T01:42:03.915Z,4.97
2019-04-23T01:43:58.235Z,3.97
2019-04-23T01:46:09.528Z,4.70
2019-04-23T01:48:12.437Z,4.30
2019-04-23T01:50:20.187Z,4.00
2019-04-23T01:52:31.996Z,4.03
2019-04-23T01:54:32.467Z,3.53
2019-04-23T01:56:36.876Z,3.80
2019-04-23T01:58:59.140Z,4.37
2019-04-23T02:00:41.245Z,4.13
2019-04-23T02:03:09.434Z,4.27
2019-04-23T02:05:01.215Z,4.20
2019-04-23T02:07:09.036Z,6.17
2019-04-23T02:09:12.637Z,4.07
2019-04-23T02:11:11.730Z,4.97
2019-04-23T02:15:29.940Z,4.63
2019-04-23T02:17:38.362Z,5.07
2019-04-23T02:19:45.811Z,6.10
2019-04-23T02:22:01.179Z,3.70
2019-04-23T02:24:05.016Z,4.60
2019-04-23T02:26:09.050Z,4.37
2019-04-23T02:28:19.563Z,3.97
2019-04-23T02:32:40.404Z,4.43
2019-04-23T02:41:03.630Z,5.63
2019-04-23T02:45:09.623Z,3.70
2019-04-23T02:49:40.449Z,4.60
2019-04-23T02:51:42.356Z,6.70
2019-04-23T02:53:51.270Z,5.07
2019-04-23T03:02:15.575Z,5.90
2019-04-23T03:04:14.822Z,3.83
2019-04-23T03:06:16.395Z,4.90
2019-04-23T03:08:24.949Z,5.50
2019-04-23T03:10:21.028Z,4.40
2019-04-23T03:14:33.038Z,4.60
2019-04-23T03:18:58.179Z,5.93
2019-04-23T03:25:47.869Z,5.57
2019-04-23T03:35:17.847Z,5.10
2019-04-23T03:36:17.067Z,5.80
2019-04-23T03:38:41.718Z,4.17
2019-04-23T03:40:48.234Z,4.40
2019-04-23T03:44:53.380Z,5.60
2019-04-23T03:46:41.996Z,4.87
2019-04-23T03:50:58.708Z,4.10
2019-04-23T03:53:10.982Z,5.20
2019-04-23T03:55:10.418Z,4.83
2019-04-23T03:57:18.489Z,4.87
2019-04-23T03:59:29.020Z,5.10
2019-04-23T04:04:22.929Z,5.07
2019-04-23T04:07:47.302Z,4.70
2019-04-23T04:11:48.654Z,5.87
2019-04-23T04:16:00.746Z,4.73
2019-04-23T04:22:28.814Z,4.30
2019-04-23T04:24:35.996Z,4.57
2019-04-23T04:28:48.638Z,5.73
2019-04-23T04:32:56.572Z,4.90
2019-04-23T04:37:27.141Z,5.47
2019-04-23T04:38:58.989Z,5.23
2019-04-23T04:47:40.293Z,5.73
2019-04-23T04:49:44.072Z,4.07
2019-04-23T04:51:49.775Z,3.63
2019-04-23T04:55:57.250Z,4.33
2019-04-23T05:02:20.920Z,4.47
2019-04-23T05:04:19.875Z,4.73
2019-04-23T05:08:28.881Z,3.53
2019-04-23T05:12:36.240Z,4.43
2019-04-23T05:19:25.136Z,4.53
2019-04-23T05:21:43.589Z,4.17
2019-04-23T05:23:58.023Z,4.53
2019-04-23T05:25:46.225Z,4.30
2019-04-23T05:28:08.035Z,3.70
2019-04-23T05:30:02.961Z,5.97
2019-04-23T05:31:58.096Z,3.60
2019-04-23T05:34:14.557Z,4.63
2019-04-23T05:36:20.150Z,5.10
2019-04-23T05:38:29.970Z,4.67
2019-04-23T05:40:30.487Z,4.40
2019-04-23T05:42:26.650Z,3.63
2019-04-23T05:44:51.038Z,4.13
2019-04-23T05:46:52.294Z,4.23
2019-04-23T05:48:50.886Z,5.13
2019-04-23T05:51:01.137Z,5.67
2019-04-23T05:53:01.366Z,4.23
2019-04-23T05:55:01.614Z,3.60
2019-04-23T05:57:01.779Z,3.77
2019-04-23T05:59:12.967Z,3.77
2019-04-23T06:03:29.407Z,4.00
2019-04-23T06:05:40.096Z,4.17
2019-04-23T06:09:52.156Z,3.87
2019-04-23T06:12:01.529Z,4.40
2019-04-23T06:14:07.652Z,4.40
2019-04-23T06:16:16.370Z,4.00
2019-04-23T06:18:17.135Z,4.20
2019-04-23T06:20:31.604Z,4.63
2019-04-23T06:22:29.066Z,4.30
2019-04-23T06:24:39.809Z,3.80
2019-04-23T06:26:39.556Z,4.13
2019-04-23T06:28:44.026Z,4.27
2019-04-23T06:33:14.568Z,3.83
2019-04-23T06:34:56.781Z,4.50
2019-04-23T06:37:04.999Z,4.40
2019-04-23T06:39:08.435Z,3.70
2019-04-23T06:41:16.754Z,3.90
2019-04-23T06:43:35.186Z,3.80
2019-04-23T06:45:32.173Z,4.43
2019-04-23T06:47:36.137Z,3.37
2019-04-23T06:49:44.122Z,3.80
2019-04-23T06:52:02.415Z,3.63
2019-04-23T06:53:59.973Z,4.47
2019-04-23T06:56:06.762Z,4.10
2019-04-23T06:58:12.342Z,4.43
2019-04-23T07:00:16.679Z,3.70
2019-04-23T07:02:35.978Z,3.90
2019-04-23T07:04:30.596Z,3.57
2019-04-23T07:06:32.615Z,4.10
2019-04-23T07:10:54.319Z,4.10
2019-04-23T07:12:53.855Z,3.90
2019-04-23T07:16:58.935Z,4.10
2019-04-23T07:19:09.495Z,4.43
2019-04-23T07:21:15.449Z,4.20
2019-04-23T07:23:26.075Z,4.03
2019-04-23T07:25:23.961Z,4.37
2019-04-23T07:27:24.578Z,4.07
2019-04-23T07:29:32.667Z,4.80
2019-04-23T07:31:40.934Z,4.60
2019-04-23T07:33:54.722Z,4.40
2019-04-23T07:35:51.821Z,4.17
2019-04-23T07:38:09.307Z,4.63
2019-04-23T07:40:39.033Z,4.70
2019-04-23T07:45:17.121Z,4.23
2019-04-23T07:49:43.386Z,4.10
2019-04-23T07:51:37.142Z,4.00
2019-04-23T07:53:46.372Z,4.17
2019-04-23T07:58:00.255Z,4.40
2019-04-23T08:00:00.779Z,4.37
2019-04-23T08:02:11.549Z,4.47
2019-04-23T08:04:08.833Z,4.57
2019-04-23T08:06:12.020Z,3.87
2019-04-23T08:08:21.453Z,4.23
2019-04-23T08:10:29.739Z,4.67
2019-04-23T08:14:47.970Z,4.10
2019-04-23T08:16:36.808Z,4.33
2019-04-23T08:20:57.175Z,4.07
2019-04-23T08:23:12.576Z,4.30
2019-04-23T08:25:45.823Z,4.17
2019-04-23T08:28:00.489Z,4.73
2019-04-23T08:30:00.184Z,4.67
2019-04-23T08:34:23.908Z,4.63
2019-04-23T08:36:23.741Z,4.70
2019-04-23T08:38:32.302Z,4.83
2019-04-23T08:40:35.341Z,4.47
2019-04-23T08:45:15.593Z,4.43
2019-04-23T08:47:32.034Z,4.27
2019-04-23T08:49:36.203Z,5.00
2019-04-23T08:51:44.183Z,4.17
2019-04-23T08:55:51.628Z,4.55
2019-04-23T08:57:47.100Z,5.40
2019-04-23T08:59:57.398Z,4.23
2019-04-23T09:04:08.922Z,4.90
2019-04-23T09:06:16.149Z,5.00
2019-04-23T09:08:32.726Z,5.47
2019-04-23T09:10:32.431Z,4.97
2019-04-23T09:14:31.517Z,5.13
2019-04-23T09:16:48.812Z,5.13
2019-04-23T09:18:51.225Z,4.97
2019-04-23T09:20:49.692Z,4.40
2019-04-23T09:22:54.946Z,5.33
2019-04-23T09:25:14.807Z,5.60
2019-04-23T09:27:16.418Z,5.30
2019-04-23T09:32:00.742Z,4.97
2019-04-23T09:33:52.207Z,5.05
2019-04-23T09:38:31.866Z,4.97
2019-04-23T09:41:18.216Z,5.35
2019-04-23T09:43:12.209Z,5.50
2019-04-23T09:45:26.897Z,4.72
2019-04-23T09:47:58.080Z,4.75
2019-04-23T09:50:06.378Z,5.20
2019-04-23T09:52:09.226Z,5.87
2019-04-23T09:54:09.787Z,5.53
2019-04-23T09:56:17.703Z,5.12
2019-04-23T10:00:31.448Z,5.95
2019-04-23T10:02:21.971Z,5.73
2019-04-23T10:04:26.494Z,6.30
2019-04-23T10:06:22.657Z,5.50
2019-04-23T10:08:27.961Z,5.25
2019-04-23T10:10:28.283Z,5.25
2019-04-23T10:12:33.034Z,5.40
2019-04-23T10:14:36.850Z,5.60
2019-04-23T10:16:41.413Z,5.25
2019-04-23T10:18:47.014Z,5.95
2019-04-23T10:20:52.299Z,4.72
2019-04-23T10:22:57.311Z,5.10
2019-04-23T10:25:01.337Z,5.45
2019-04-23T10:27:06.102Z,5.42
2019-04-23T10:29:21.324Z,5.72
2019-04-23T10:31:25.301Z,6.00
2019-04-23T10:33:29.713Z,6.22
2019-04-23T10:35:43.227Z,6.00
2019-04-23T10:37:48.113Z,5.70
2019-04-23T10:39:52.537Z,5.78
2019-04-23T10:41:53.171Z,4.97
2019-04-23T10:44:05.092Z,5.45
2019-04-23T10:46:53.696Z,5.67
2019-04-23T10:49:48.497Z,5.28
2019-04-23T10:51:33.876Z,5.72
2019-04-23T10:53:38.267Z,5.40
2019-04-23T10:57:49.165Z,6.35
2019-04-23T10:59:50.360Z,6.40
2019-04-23T11:02:10.507Z,6.05
2019-04-23T11:04:23.509Z,6.10
2019-04-23T11:06:28.765Z,5.80
2019-04-23T11:08:18.878Z,5.83
2019-04-23T11:12:46.285Z,5.08
2019-04-23T11:15:18.333Z,6.28
2019-04-23T11:17:19.426Z,5.35
2019-04-23T11:19:24.872Z,6.28
2019-04-23T11:21:34.301Z,5.75
2019-04-23T11:23:39.233Z,6.80
2019-04-23T11:27:44.103Z,6.53
2019-04-23T11:29:51.822Z,5.87
2019-04-23T11:32:33.110Z,6.17
2019-04-23T11:36:33.398Z,6.10
2019-04-23T11:40:22.640Z,6.70
2019-04-23T11:42:26.218Z,5.58
2019-04-23T11:44:52.953Z,6.20
2019-04-23T11:48:51.461Z,5.60
2019-04-23T11:51:18.494Z,6.37
2019-04-23T11:55:03.156Z,6.00
2019-04-23T11:57:27.212Z,5.58
2019-04-23T11:59:17.526Z,5.67
2019-04-23T12:01:53.305Z,6.00
2019-04-23T12:04:05.679Z,5.95
2019-04-23T12:06:32.827Z,6.92
2019-04-23T12:08:57.085Z,5.67
2019-04-23T12:11:41.016Z,6.55
2019-04-23T12:13:20.738Z,6.08
2019-04-23T12:15:30.436Z,6.22
2019-04-23T12:17:24.694Z,6.20
2019-04-23T12:23:48.391Z,6.53
2019-04-23T12:25:51.562Z,6.22
2019-04-23T12:27:42.087Z,6.60
2019-04-23T12:30:00.870Z,6.45
2019-04-23T12:34:39.555Z,6.25
2019-04-23T12:36:51.398Z,6.80
2019-04-23T12:39:08.696Z,7.17
2019-04-23T12:41:10.619Z,6.83
2019-04-23T12:45:26.959Z,7.00
2019-04-23T12:47:40.174Z,6.55
2019-04-23T12:51:41.569Z,6.53
2019-04-23T12:53:50.717Z,6.95
2019-04-23T12:59:58.313Z,6.78
2019-04-23T13:02:03.368Z,7.67
2019-04-23T13:04:09.385Z,6.83
2019-04-23T13:06:13.252Z,6.40
2019-04-23T13:08:26.809Z,6.78
2019-04-23T13:10:28.306Z,7.12
2019-04-23T13:12:46.662Z,6.70
2019-04-23T13:14:41.649Z,7.35
2019-04-23T13:16:53.636Z,6.60
2019-04-23T13:18:52.777Z,7.33
2019-04-23T13:20:51.631Z,7.72
2019-04-23T13:23:06.306Z,7.87
2019-04-23T13:25:18.201Z,7.90
2019-04-23T13:27:30.667Z,7.67
2019-04-23T13:29:38.148Z,7.80
2019-04-23T13:31:29.259Z,8.08
2019-04-23T13:35:53.672Z,7.15
2019-04-23T13:37:58.939Z,7.72
2019-04-23T13:40:18.841Z,8.18
2019-04-23T13:42:07.612Z,7.05
2019-04-23T13:44:05.511Z,7.65
2019-04-23T13:46:14.095Z,7.42
2019-04-23T13:48:16.671Z,6.83
2019-04-23T13:50:40.344Z,6.75
2019-04-23T13:52:59.844Z,7.12
2019-04-23T13:57:14.430Z,8.20
2019-04-23T13:58:53.567Z,7.80
2019-04-23T14:01:18.568Z,8.00
2019-04-23T14:03:04.066Z,7.30
2019-04-23T14:05:23.931Z,7.53
2019-04-23T14:07:32.268Z,7.12
2019-04-23T14:11:47.911Z,7.72
2019-04-23T14:16:10.323Z,7.37
2019-04-23T14:18:19.637Z,8.00
2019-04-23T14:20:07.271Z,7.85
2019-04-23T14:22:40.567Z,7.00
2019-04-23T14:24:38.753Z,7.78
2019-04-23T14:26:29.549Z,7.10
2019-04-23T14:28:37.364Z,7.22
2019-04-23T14:30:38.403Z,7.40
2019-04-23T14:34:55.495Z,7.42
2019-04-23T14:38:57.331Z,7.33
2019-04-23T14:41:10.607Z,7.37
2019-04-23T14:45:29.837Z,7.17
2019-04-23T14:47:37.966Z,7.05
2019-04-23T14:49:34.096Z,7.72
2019-04-23T14:53:52.162Z,6.95
2019-04-23T14:55:57.192Z,7.05
2019-04-23T14:58:10.189Z,7.22
2019-04-23T15:02:14.557Z,6.85
2019-04-23T15:04:11.029Z,6.90
2019-04-23T15:06:39.887Z,6.35
2019-04-23T15:08:32.109Z,4.83
2019-04-23T15:10:34.362Z,4.47
2019-04-23T15:12:38.583Z,3.40
2019-04-23T15:17:03.317Z,4.00
2019-04-23T15:21:37.656Z,3.40
2019-04-23T15:29:27.551Z,3.17
2019-04-23T15:31:48.791Z,3.62
2019-04-23T15:34:00.621Z,3.00
2019-04-23T15:36:14.287Z,2.98
2019-04-23T15:40:18.336Z,2.72
2019-04-23T15:42:16.644Z,3.25
2019-04-23T15:48:31.396Z,3.25
2019-04-23T15:50:37.638Z,2.80
2019-04-23T15:52:56.024Z,3.30
2019-04-23T15:55:01.696Z,3.02
2019-04-23T15:56:55.134Z,3.20
2019-04-23T15:59:23.654Z,3.12
2019-04-23T16:02:54.453Z,4.05
2019-04-23T16:05:00.120Z,2.87
2019-04-23T16:07:07.301Z,3.00
2019-04-23T16:09:39.929Z,3.40
2019-04-23T16:14:11.315Z,3.45
2019-04-23T16:16:02.574Z,3.77
2019-04-23T16:18:13.839Z,4.45
2019-04-23T16:22:18.947Z,5.05
2019-04-23T16:24:20.405Z,4.90
2019-04-23T16:26:45.086Z,5.22
2019-04-23T16:29:03.013Z,5.45
2019-04-23T16:30:49.076Z,5.95
2019-04-23T16:35:29.158Z,5.58
2019-04-23T16:37:22.745Z,5.40
2019-04-23T16:39:21.675Z,5.35
2019-04-23T16:41:39.898Z,5.60
2019-04-23T16:43:40.406Z,6.78
2019-04-23T16:47:56.066Z,4.92
2019-04-23T16:50:04.546Z,6.15
2019-04-23T16:52:07.801Z,6.03
2019-04-23T16:54:15.271Z,6.37
2019-04-23T16:56:18.712Z,5.83
2019-04-23T16:58:25.235Z,6.40
2019-04-23T17:00:51.292Z,5.90
2019-04-23T17:02:34.197Z,6.72
2019-04-23T17:04:39.234Z,6.10
2019-04-23T17:06:54.366Z,7.10
2019-04-23T17:11:10.075Z,6.80
2019-04-23T17:13:04.924Z,6.95
2019-04-23T17:15:12.787Z,7.92
2019-04-23T17:17:06.473Z,6.87
2019-04-23T17:19:24.190Z,7.25
2019-04-23T17:21:24.058Z,6.90
2019-04-23T17:23:40.085Z,7.62
2019-04-23T17:27:48.935Z,7.47
2019-04-23T17:29:55.638Z,7.53
2019-04-23T17:32:07.067Z,7.83
2019-04-23T17:34:17.602Z,7.90
2019-04-23T17:38:59.494Z,7.75
2019-04-23T17:41:07.012Z,7.70
2019-04-23T17:43:05.873Z,8.58
2019-04-23T17:50:02.889Z,8.28
2019-04-23T17:51:42.634Z,8.10
2019-04-23T17:56:10.390Z,8.75
2019-04-23T17:58:16.120Z,8.55
2019-04-23T18:02:51.783Z,7.75
2019-04-23T18:04:22.585Z,7.70
2019-04-23T18:08:33.123Z,8.18
2019-04-23T18:10:41.513Z,7.85
2019-04-23T18:14:52.717Z,7.75
2019-04-23T18:16:55.524Z,8.38
2019-04-23T18:19:10.339Z,7.92
2019-04-23T18:21:44.434Z,7.47
2019-04-23T18:23:34.690Z,8.90
2019-04-23T18:30:10.977Z,7.92
2019-04-23T18:32:25.240Z,8.10
2019-04-23T18:34:47.027Z,8.15
2019-04-23T18:36:30.353Z,8.35
2019-04-23T18:42:54.216Z,8.28
2019-04-23T18:47:09.007Z,8.25
2019-04-23T18:49:10.869Z,8.03
2019-04-23T18:51:31.719Z,7.90
2019-04-23T18:53:35.278Z,8.15
2019-04-23T18:55:54.274Z,7.75
2019-04-23T18:57:55.299Z,7.80
2019-04-23T18:59:47.396Z,7.47
2019-04-23T19:02:02.513Z,7.67
2019-04-23T19:06:43.991Z,8.50
2019-04-23T19:09:02.883Z,7.53
2019-04-23T19:11:37.188Z,7.42
2019-04-23T19:15:38.032Z,8.20
2019-04-23T19:17:56.409Z,7.15
2019-04-23T19:20:01.118Z,7.85
2019-04-23T19:22:12.315Z,7.95
2019-04-23T19:23:54.767Z,7.72
2019-04-23T19:26:09.616Z,7.65
2019-04-23T19:28:30.224Z,8.60
2019-04-23T19:32:28.274Z,7.95
2019-04-23T19:36:52.564Z,8.23
2019-04-23T19:38:46.071Z,8.10
2019-04-23T19:40:56.681Z,8.18
2019-04-23T19:42:54.186Z,8.18
2019-04-23T19:44:57.374Z,8.35
2019-04-23T19:47:09.549Z,8.75
2019-04-23T19:51:18.703Z,8.08
2019-04-23T19:53:36.364Z,7.92
2019-04-23T19:55:31.520Z,8.03
2019-04-23T19:57:57.970Z,8.23
2019-04-23T19:59:47.621Z,8.25
2019-04-23T20:01:47.270Z,8.30
2019-04-23T20:06:02.958Z,7.47
2019-04-23T20:10:03.658Z,7.70
2019-04-23T20:12:15.564Z,7.93
2019-04-23T20:14:26.214Z,8.77
2019-04-23T20:16:40.044Z,7.83
2019-04-23T20:18:47.798Z,7.17
2019-04-23T20:25:10.781Z,8.03
2019-04-23T20:29:36.071Z,8.23
2019-04-23T20:33:55.142Z,7.37
2019-04-23T20:35:52.383Z,7.97
2019-04-23T20:38:19.018Z,8.20
2019-04-23T20:44:11.883Z,8.83
2019-04-23T20:46:36.791Z,8.23
2019-04-23T20:48:25.184Z,8.10
2019-04-23T20:50:27.614Z,8.67
2019-04-23T20:52:22.718Z,8.30
2019-04-23T20:54:49.298Z,8.17
2019-04-23T20:56:56.119Z,8.17
2019-04-23T21:01:26.947Z,8.03
2019-04-23T21:03:30.835Z,7.67
2019-04-23T21:05:15.229Z,8.57
2019-04-23T21:07:35.188Z,7.53
2019-04-23T21:11:40.631Z,7.33
2019-04-23T21:14:03.595Z,8.63
2019-04-23T21:15:45.294Z,7.80
2019-04-23T21:17:58.246Z,8.60
2019-04-23T21:20:08.847Z,8.50
2019-04-23T21:22:09.526Z,7.67
2019-04-23T21:24:08.736Z,7.40
2019-04-23T21:26:01.845Z,7.70
2019-04-23T21:30:58.970Z,8.20
2019-04-23T21:32:56.025Z,7.63
2019-04-23T21:35:04.939Z,7.33
2019-04-23T21:36:58.067Z,7.30
2019-04-23T21:39:41.838Z,7.57
2019-04-23T21:46:07.224Z,7.70
2019-04-23T21:52:11.783Z,7.03
2019-04-23T21:54:14.962Z,7.13
2019-04-23T21:56:31.256Z,7.13
2019-04-23T21:58:51.421Z,7.47
2019-04-23T22:00:53.085Z,7.00
2019-04-23T22:04:52.089Z,7.10
2019-04-23T22:06:52.753Z,6.60
2019-04-23T22:09:04.254Z,6.73
2019-04-23T22:11:36.254Z,6.57
2019-04-23T22:13:19.799Z,6.90
2019-04-23T22:15:26.552Z,6.67
2019-04-23T22:17:26.714Z,6.63
2019-04-23T22:19:27.330Z,6.83
2019-04-23T22:23:50.613Z,6.97
2019-04-23T22:25:56.349Z,6.17
2019-04-23T22:27:54.885Z,6.73
2019-04-23T22:29:59.062Z,5.97
2019-04-23T22:32:02.507Z,6.00
2019-04-23T22:36:16.491Z,6.13
2019-04-23T22:40:25.374Z,5.70
2019-04-23T22:44:51.091Z,5.60
2019-04-23T22:46:52.502Z,6.00
2019-04-23T22:49:17.647Z,5.43
2019-04-23T22:51:21.035Z,5.87
2019-04-23T22:53:18.934Z,5.60
2019-04-23T22:57:37.140Z,5.43
2019-04-23T23:01:59.237Z,5.13
2019-04-23T23:03:52.878Z,5.53
2019-04-23T23:06:11.010Z,5.67
2019-04-23T23:10:18.811Z,5.00
2019-04-23T23:12:27.996Z,5.50
2019-04-23T23:14:23.842Z,5.60
2019-04-23T23:18:54.645Z,4.83
2019-04-23T23:25:03.360Z,5.00
2019-04-23T23:26:57.391Z,5.40
2019-04-23T23:29:16.026Z,4.70
2019-04-23T23:31:06.863Z,5.30
2019-04-23T23:33:19.232Z,5.03
2019-04-23T23:35:24.548Z,5.13
2019-04-23T23:37:19.048Z,4.40
2019-04-23T23:39:27.199Z,5.23
2019-04-23T23:41:46.922Z,5.27
2019-04-23T23:46:04.875Z,4.90
2019-04-23T23:47:59.463Z,4.87
2019-04-23T23:50:11.171Z,5.27
2019-04-23T23:52:02.892Z,4.70
2019-04-23T23:54:13.602Z,4.70
2019-04-23T23:56:17.765Z,4.47
2019-04-23T23:58:28.916Z,5.13
